Time;durP1;ratioP1;P1;durP2;ratioP2;P2;SDS_P1;SDS_P2;PMS_P1;PMS_P2;Temp;Humidity;BMP_temperature;BMP_pressure;BME280_temperature;BME280_humidity;BME280_pressure;Samples;Min_cycle;Max_cycle;Signal;HPM_P1;HPM_P2
2021/08/01 00:00:06;;;;;;;;;12.25;12.00;37.10;24.30;;;;;;683497;28;6205;-85
2021/08/01 00:00:26;;;;;;;;;10.00;10.00;37.20;24.30;;;;;;680281;28;6921;-84
2021/08/01 00:00:47;;;;;;;;;13.00;12.00;37.10;24.40;;;;;;678934;29;5661;-84
2021/08/01 00:01:08;;;;;;;;;11.00;11.00;37.10;24.30;;;;;;676991;29;6204;-85
2021/08/01 00:01:28;;;;;;;;;11.40;11.40;37.10;24.30;;;;;;679853;28;6131;-83
2021/08/01 00:01:49;;;;;;;;;14.25;12.25;37.00;24.30;;;;;;678880;29;6105;-85
2021/08/01 00:02:10;;;;;;;;;14.75;14.75;37.20;24.40;;;;;;679355;28;6392;-84
2021/08/01 00:02:31;;;;;;;;;12.75;12.75;37.20;24.30;;;;;;681921;28;6074;-85
2021/08/01 00:02:52;;;;;;;;;10.50;10.50;37.10;24.30;;;;;;684998;28;6041;-85
2021/08/01 00:03:12;;;;;;;;;12.40;12.00;37.10;24.30;;;;;;686908;28;6149;-86
2021/08/01 00:03:33;;;;;;;;;12.00;11.00;37.10;24.40;;;;;;686864;28;6201;-84
2021/08/01 00:03:54;;;;;;;;;14.25;12.25;37.10;24.40;;;;;;686962;28;6094;-86
2021/08/01 00:04:14;;;;;;;;;14.00;13.00;37.10;24.40;;;;;;684431;28;6028;-86
2021/08/01 00:04:35;;;;;;;;;14.20;14.00;37.10;24.40;;;;;;681964;28;6978;-85
2021/08/01 00:04:57;;;;;;;;;12.25;12.25;37.10;24.40;;;;;;684049;28;6203;-85
2021/08/01 00:05:18;;;;;;;;;13.00;12.00;37.10;24.40;;;;;;684825;28;6408;-85
2021/08/01 00:05:41;;;;;;;;;14.00;13.50;37.10;24.40;;;;;;684278;28;6104;-85
2021/08/01 00:06:02;;;;;;;;;12.60;12.60;37.20;24.40;;;;;;683862;28;8548;-85
2021/08/01 00:06:23;;;;;;;;;14.40;14.40;37.10;24.40;;;;;;685001;28;6916;-85
2021/08/01 00:06:43;;;;;;;;;14.20;13.80;37.10;24.40;;;;;;684890;28;6089;-84
2021/08/01 00:07:05;;;;;;;;;12.00;11.80;37.10;24.40;;;;;;686713;28;6161;-86
2021/08/01 00:07:26;;;;;;;;;12.00;12.00;37.10;24.40;;;;;;683222;28;5718;-86
2021/08/01 00:07:46;;;;;;;;;12.00;12.00;37.10;24.40;;;;;;681990;28;6148;-85
2021/08/01 00:08:07;;;;;;;;;13.80;13.80;37.10;24.40;;;;;;681501;29;6096;-85
2021/08/01 00:08:28;;;;;;;;;12.00;12.00;37.10;24.40;;;;;;681870;28;6175;-85
2021/08/01 00:08:48;;;;;;;;;13.00;13.00;37.10;24.50;;;;;;681436;29;6305;-85
2021/08/01 00:09:09;;;;;;;;;11.00;11.00;37.10;24.40;;;;;;681569;28;6781;-84
2021/08/01 00:09:30;;;;;;;;;10.60;10.60;37.10;24.50;;;;;;680831;29;6932;-84
2021/08/01 00:09:59;;;;;;;;;10.00;10.00;37.10;24.40;;;;;;681364;28;6138;-84
2021/08/01 00:10:20;;;;;;;;;15.00;14.40;37.10;24.40;;;;;;681958;28;8794;-85
2021/08/01 00:10:40;;;;;;;;;16.50;15.00;37.10;24.50;;;;;;679297;29;6096;-85
2021/08/01 00:11:01;;;;;;;;;15.20;15.20;37.10;24.50;;;;;;677847;29;6949;-85
2021/08/01 00:11:22;;;;;;;;;12.40;12.00;37.10;24.40;;;;;;676830;29;6164;-85
2021/08/01 00:11:43;;;;;;;;;11.25;10.50;37.00;24.40;;;;;;680867;28;6162;-85
2021/08/01 00:12:04;;;;;;;;;12.50;11.50;37.10;24.50;;;;;;680405;28;7127;-85
2021/08/01 00:12:26;;;;;;;;;14.60;14.00;37.10;24.60;;;;;;681174;28;6221;-86
2021/08/01 00:12:47;;;;;;;;;13.00;12.60;37.10;24.40;;;;;;683259;28;8440;-86
2021/08/01 00:13:08;;;;;;;;;12.75;12.75;37.00;24.40;;;;;;680721;28;6077;-85
2021/08/01 00:13:28;;;;;;;;;11.60;11.60;37.10;24.50;;;;;;678117;28;6166;-85
2021/08/01 00:13:50;;;;;;;;;13.00;12.50;37.10;24.40;;;;;;678598;28;6186;-86
2021/08/01 00:14:11;;;;;;;;;12.80;12.80;37.00;24.40;;;;;;681566;28;6581;-85
2021/08/01 00:14:32;;;;;;;;;13.00;12.25;37.10;24.50;;;;;;683600;28;6291;-85
2021/08/01 00:14:53;;;;;;;;;12.00;11.00;37.00;24.40;;;;;;684016;28;6288;-86
2021/08/01 00:15:14;;;;;;;;;11.00;11.00;37.10;24.50;;;;;;683388;28;6986;-87
2021/08/01 00:15:34;;;;;;;;;12.75;12.75;37.10;24.50;;;;;;684297;28;6071;-85
2021/08/01 00:15:55;;;;;;;;;15.50;14.50;37.10;24.50;;;;;;683622;28;5624;-85
2021/08/01 00:16:16;;;;;;;;;13.40;13.40;37.10;24.50;;;;;;683455;28;6149;-85
2021/08/01 00:16:37;;;;;;;;;12.00;12.00;37.10;24.50;;;;;;680799;28;6185;-85
2021/08/01 00:17:00;;;;;;;;;13.60;13.60;37.10;24.50;;;;;;680871;28;6245;-85
2021/08/01 00:17:21;;;;;;;;;11.60;11.40;37.10;24.50;;;;;;680640;28;8282;-85
2021/08/01 00:17:42;;;;;;;;;13.40;10.60;37.00;24.40;;;;;;681557;28;6977;-85
2021/08/01 00:18:02;;;;;;;;;14.75;12.75;37.10;24.60;;;;;;681586;28;5526;-85
2021/08/01 00:18:23;;;;;;;;;13.40;13.20;37.10;24.50;;;;;;684195;28;6144;-85
2021/08/01 00:18:44;;;;;;;;;13.25;13.25;37.10;24.60;;;;;;683576;28;6106;-85
2021/08/01 00:19:05;;;;;;;;;12.00;11.00;37.10;24.60;;;;;;681220;28;6233;-85
2021/08/01 00:19:25;;;;;;;;;12.75;12.50;37.10;24.60;;;;;;681031;28;6069;-85
2021/08/01 00:19:46;;;;;;;;;13.50;12.50;37.10;24.50;;;;;;681187;28;6061;-85
2021/08/01 00:20:12;;;;;;;;;14.20;13.60;37.10;24.60;;;;;;681196;28;6158;-85
2021/08/01 00:20:33;;;;;;;;;12.00;12.00;37.00;24.50;;;;;;679493;28;6351;-85
2021/08/01 00:20:54;;;;;;;;;12.00;12.00;37.10;24.60;;;;;;681839;28;6111;-85
2021/08/01 00:21:15;;;;;;;;;14.00;13.25;37.00;24.50;;;;;;683868;28;6668;-85
2021/08/01 00:21:36;;;;;;;;;13.25;13.00;37.00;24.60;;;;;;683779;28;6804;-85
2021/08/01 00:21:57;;;;;;;;;13.25;12.25;37.00;24.50;;;;;;683403;28;6057;-85
2021/08/01 00:22:18;;;;;;;;;11.50;11.50;37.00;24.50;;;;;;681905;28;6190;-85
2021/08/01 00:22:39;;;;;;;;;11.20;11.20;37.00;24.50;;;;;;683578;28;8526;-85
2021/08/01 00:22:59;;;;;;;;;10.80;10.60;37.00;24.50;;;;;;683715;28;6121;-85
2021/08/01 00:23:20;;;;;;;;;13.00;12.50;37.00;24.50;;;;;;683956;28;6102;-85
2021/08/01 00:23:41;;;;;;;;;14.00;13.00;37.00;24.50;;;;;;683464;28;6287;-84
2021/08/01 00:24:02;;;;;;;;;13.60;13.40;37.00;24.60;;;;;;681368;28;6176;-85
2021/08/01 00:24:23;;;;;;;;;15.00;13.00;37.00;24.60;;;;;;683364;28;6158;-85
2021/08/01 00:24:43;;;;;;;;;15.60;14.00;37.00;24.50;;;;;;680784;28;6181;-84
2021/08/01 00:25:05;;;;;;;;;17.00;15.00;37.00;24.60;;;;;;680981;28;6052;-84
2021/08/01 00:25:25;;;;;;;;;14.40;14.00;37.00;24.50;;;;;;681209;28;6199;-85
2021/08/01 00:25:46;;;;;;;;;14.00;14.00;37.00;24.70;;;;;;684045;28;6195;-85
2021/08/01 00:26:07;;;;;;;;;15.00;14.00;37.00;24.60;;;;;;683381;28;6024;-85
2021/08/01 00:26:28;;;;;;;;;14.00;14.00;37.00;24.60;;;;;;683648;28;6878;-85
2021/08/01 00:26:49;;;;;;;;;14.80;13.80;37.00;24.60;;;;;;685031;28;6106;-85
2021/08/01 00:27:09;;;;;;;;;15.00;14.00;37.00;24.60;;;;;;686655;28;6174;-85
2021/08/01 00:27:35;;;;;;;;;14.00;14.00;37.00;24.50;;;;;;689008;28;5988;-84
2021/08/01 00:27:56;;;;;;;;;14.80;14.80;37.00;24.60;;;;;;686006;28;6798;-86
2021/08/01 00:28:16;;;;;;;;;13.75;13.00;37.00;24.60;;;;;;685982;28;6086;-85
2021/08/01 00:28:37;;;;;;;;;15.00;14.00;37.00;24.70;;;;;;687214;28;5992;-86
2021/08/01 00:28:58;;;;;;;;;15.20;15.20;37.00;24.70;;;;;;686060;28;6108;-84
2021/08/01 00:29:18;;;;;;;;;16.00;15.00;37.00;24.70;;;;;;686323;28;6805;-85
2021/08/01 00:29:39;;;;;;;;;15.00;15.00;37.00;24.90;;;;;;683835;28;6260;-84
2021/08/01 00:30:00;;;;;;;;;13.60;13.60;37.00;24.90;;;;;;680714;28;6140;-83
2021/08/01 00:30:21;;;;;;;;;13.75;13.75;37.00;24.90;;;;;;681299;28;6042;-87
2021/08/01 00:30:43;;;;;;;;;17.20;17.00;37.00;25.00;;;;;;682389;28;6467;-84
2021/08/01 00:31:03;;;;;;;;;15.75;15.50;37.00;25.00;;;;;;684695;28;6795;-85
2021/08/01 00:31:24;;;;;;;;;13.40;13.40;37.00;25.00;;;;;;686973;28;6108;-85
2021/08/01 00:31:45;;;;;;;;;15.75;14.75;37.00;24.90;;;;;;686750;28;6000;-86
2021/08/01 00:32:06;;;;;;;;;15.50;12.00;37.00;25.10;;;;;;689192;28;6150;-85
2021/08/01 00:32:27;;;;;;;;;13.00;13.00;37.10;25.20;;;;;;686087;28;6422;-85
2021/08/01 00:32:48;;;;;;;;;13.40;13.40;37.10;25.10;;;;;;686279;28;6108;-85
2021/08/01 00:33:11;;;;;;;;;13.60;13.60;37.00;25.00;;;;;;683569;28;6124;-86
2021/08/01 00:33:32;;;;;;;;;12.00;12.00;37.00;25.00;;;;;;681963;28;8491;-85
2021/08/01 00:33:53;;;;;;;;;12.33;12.33;37.00;25.10;;;;;;683731;28;6083;-85
2021/08/01 00:34:13;;;;;;;;;15.00;15.00;37.00;25.10;;;;;;684431;28;6016;-85
2021/08/01 00:34:34;;;;;;;;;13.25;13.25;37.00;24.90;;;;;;686273;28;6279;-86
2021/08/01 00:34:55;;;;;;;;;13.60;13.60;37.10;25.00;;;;;;687389;28;6065;-86
2021/08/01 00:35:16;;;;;;;;;17.50;16.25;37.10;25.00;;;;;;689672;28;6008;-85
2021/08/01 00:35:36;;;;;;;;;14.60;13.60;37.10;25.00;;;;;;687651;28;6108;-84
2021/08/01 00:35:57;;;;;;;;;15.00;14.60;37.00;24.90;;;;;;690694;28;6084;-85
2021/08/01 00:36:18;;;;;;;;;15.00;14.00;37.10;25.00;;;;;;687711;28;6691;-85
2021/08/01 00:36:38;;;;;;;;;13.50;13.50;37.10;25.00;;;;;;687888;28;6025;-83
2021/08/01 00:36:59;;;;;;;;;13.40;13.40;37.00;24.90;;;;;;687964;28;6169;-84
2021/08/01 00:37:20;;;;;;;;;15.40;14.40;37.10;24.90;;;;;;688340;28;5949;-84
2021/08/01 00:37:41;;;;;;;;;17.00;16.40;37.10;25.00;;;;;;688394;28;6146;-84
2021/08/01 00:38:02;;;;;;;;;15.40;14.40;37.10;25.00;;;;;;687957;28;6125;-83
2021/08/01 00:38:23;;;;;;;;;19.00;18.00;37.10;25.00;;;;;;689013;28;6078;-86
2021/08/01 00:38:43;;;;;;;;;13.40;13.00;37.10;24.90;;;;;;689751;28;5958;-88
2021/08/01 00:39:04;;;;;;;;;13.00;12.00;37.10;25.10;;;;;;688993;28;6081;-87
2021/08/01 00:39:25;;;;;;;;;14.50;12.75;37.00;24.90;;;;;;689647;28;6249;-85
2021/08/01 00:39:45;;;;;;;;;14.00;14.00;37.10;24.90;;;;;;687363;28;6021;-87
2021/08/01 00:40:07;;;;;;;;;14.00;13.00;37.10;24.90;;;;;;686786;28;6011;-87
2021/08/01 00:40:27;;;;;;;;;15.00;15.00;37.00;24.90;;;;;;686237;28;6014;-87
2021/08/01 00:40:48;;;;;;;;;15.40;15.40;37.10;24.90;;;;;;684618;28;6181;-87
2021/08/01 00:41:09;;;;;;;;;14.00;13.60;37.10;24.90;;;;;;686900;28;6191;-86
2021/08/01 00:41:33;;;;;;;;;14.00;13.00;37.10;25.00;;;;;;687736;28;6144;-87
2021/08/01 00:41:53;;;;;;;;;14.00;13.60;37.00;24.70;;;;;;689775;28;6339;-85
2021/08/01 00:42:14;;;;;;;;;16.00;14.00;37.10;24.90;;;;;;689469;28;5992;-87
2021/08/01 00:42:35;;;;;;;;;12.50;12.50;37.10;24.90;;;;;;690459;28;6225;-84
2021/08/01 00:42:56;;;;;;;;;13.00;13.00;37.10;24.80;;;;;;692163;28;6005;-86
2021/08/01 00:43:17;;;;;;;;;13.40;13.40;37.10;24.90;;;;;;689627;28;6004;-86
2021/08/01 00:43:37;;;;;;;;;16.60;14.00;37.10;25.00;;;;;;686829;28;6080;-87
2021/08/01 00:43:58;;;;;;;;;14.25;14.25;37.10;24.90;;;;;;686330;28;6158;-85
2021/08/01 00:44:19;;;;;;;;;12.00;12.00;37.10;24.80;;;;;;686673;28;6045;-87
2021/08/01 00:44:39;;;;;;;;;12.00;12.00;37.10;24.90;;;;;;686876;28;5969;-85
2021/08/01 00:45:01;;;;;;;;;15.00;14.00;37.10;24.90;;;;;;686452;28;6134;-87
2021/08/01 00:45:22;;;;;;;;;17.40;16.00;37.10;24.90;;;;;;689832;28;6125;-85
2021/08/01 00:45:43;;;;;;;;;16.00;15.00;37.10;25.00;;;;;;690022;28;5957;-85
2021/08/01 00:46:04;;;;;;;;;13.80;13.00;37.10;24.90;;;;;;688516;28;8790;-87
2021/08/01 00:46:25;;;;;;;;;14.00;14.00;37.10;24.90;;;;;;685884;28;5859;-86
2021/08/01 00:46:46;;;;;;;;;15.80;14.80;37.10;24.90;;;;;;685415;28;6109;-87
2021/08/01 00:47:07;;;;;;;;;14.20;13.80;37.10;24.80;;;;;;683179;28;6076;-85
2021/08/01 00:47:27;;;;;;;;;15.20;13.20;37.10;24.80;;;;;;683642;28;6133;-86
2021/08/01 00:47:48;;;;;;;;;14.00;14.00;37.10;24.90;;;;;;684153;28;6164;-86
2021/08/01 00:48:10;;;;;;;;;13.00;12.00;37.10;24.80;;;;;;686338;28;8195;-86
2021/08/01 00:48:34;;;;;;;;;15.50;15.00;37.10;24.80;;;;;;690010;28;7007;-86
2021/08/01 00:48:54;;;;;;;;;14.00;13.50;37.10;24.80;;;;;;691951;28;7232;-86
2021/08/01 00:49:15;;;;;;;;;12.00;12.00;37.10;24.90;;;;;;691855;28;6187;-87
2021/08/01 00:49:36;;;;;;;;;15.00;12.50;37.10;24.80;;;;;;688400;28;6725;-86
2021/08/01 00:50:05;;;;;;;;;12.00;12.00;37.10;24.90;;;;;;687428;28;6216;-87
2021/08/01 00:50:26;;;;;;;;;12.25;12.00;37.10;24.90;;;;;;688249;28;8227;-87
2021/08/01 00:50:47;;;;;;;;;13.00;13.00;37.10;24.80;;;;;;684890;28;6238;-87
2021/08/01 00:51:07;;;;;;;;;13.00;13.00;37.10;24.90;;;;;;682141;28;5791;-86
2021/08/01 00:51:32;;;;;;;;;13.00;13.00;37.10;24.80;;;;;;683682;28;6854;-86
2021/08/01 00:51:55;;;;;;;;;13.40;12.00;37.00;24.80;;;;;;684630;28;6520;-86
2021/08/01 00:52:16;;;;;;;;;16.00;15.00;37.10;24.80;;;;;;681825;28;6454;-86
2021/08/01 00:52:38;;;;;;;;;13.50;12.00;37.10;24.80;;;;;;680746;28;6113;-86
2021/08/01 00:53:01;;;;;;;;;13.25;13.00;37.10;24.70;;;;;;679419;28;8234;-85
2021/08/01 00:53:22;;;;;;;;;13.00;13.00;37.10;24.80;;;;;;677727;29;7132;-85
2021/08/01 00:53:43;;;;;;;;;14.00;13.00;37.10;24.80;;;;;;678253;29;6149;-85
2021/08/01 00:54:04;;;;;;;;;13.00;12.00;37.10;25.90;;;;;;679945;28;6100;-85
2021/08/01 00:54:25;;;;;;;;;14.00;13.60;37.00;24.70;;;;;;681383;28;6215;-86
2021/08/01 00:54:46;;;;;;;;;13.20;13.20;37.10;24.90;;;;;;683387;28;6558;-87
2021/08/01 00:55:11;;;;;;;;;12.00;12.00;37.10;24.90;;;;;;681252;28;6214;-86
2021/08/01 00:55:31;;;;;;;;;15.40;15.00;37.10;24.90;;;;;;683013;28;6513;-86
2021/08/01 00:55:52;;;;;;;;;12.60;12.60;37.10;24.80;;;;;;681734;28;6134;-86
2021/08/01 00:56:14;;;;;;;;;14.75;14.75;37.10;24.90;;;;;;684394;28;6120;-86
2021/08/01 00:56:35;;;;;;;;;14.00;14.00;37.00;24.80;;;;;;682961;28;8193;-86
2021/08/01 00:56:56;;;;;;;;;13.00;13.00;37.10;25.60;;;;;;684324;28;6138;-86
2021/08/01 00:57:17;;;;;;;;;14.00;14.00;37.10;24.80;;;;;;686034;28;6330;-85
2021/08/01 00:57:38;;;;;;;;;12.50;12.50;37.10;24.90;;;;;;683903;28;6117;-85
2021/08/01 00:57:58;;;;;;;;;12.50;12.00;37.10;24.90;;;;;;686208;28;6743;-86
2021/08/01 00:58:19;;;;;;;;;12.00;11.00;37.10;24.90;;;;;;686303;28;6239;-86
2021/08/01 00:58:40;;;;;;;;;12.00;11.00;37.10;24.80;;;;;;685922;28;6045;-87
2021/08/01 00:59:01;;;;;;;;;12.60;12.60;37.10;24.90;;;;;;685961;28;6120;-85
2021/08/01 00:59:21;;;;;;;;;19.00;18.00;37.10;24.90;;;;;;686523;28;6709;-86
2021/08/01 00:59:42;;;;;;;;;14.20;14.20;37.10;24.90;;;;;;685784;28;6193;-85
2021/08/01 01:00:11;;;;;;;;;14.00;14.00;37.10;24.90;;;;;;683237;28;6771;-86
2021/08/01 01:01:22;;;;;;;;;14.00;13.00;37.10;24.80;;;;;;683498;28;6025;-86
2021/08/01 01:01:51;;;;;;;;;15.60;15.00;37.10;24.80;;;;;;683192;28;6839;-86
2021/08/01 01:02:17;;;;;;;;;15.80;14.80;37.10;24.80;;;;;;683169;28;6759;-86
2021/08/01 01:02:39;;;;;;;;;13.00;13.00;37.20;24.80;;;;;;685879;28;6919;-86
2021/08/01 01:03:17;;;;;;;;;13.00;13.00;37.10;24.70;;;;;;686221;28;8564;-85
2021/08/01 01:03:54;;;;;;;;;14.00;13.80;37.20;24.80;;;;;;684934;28;7777;-86
2021/08/01 01:04:48;;;;;;;;;15.60;14.00;37.10;24.70;;;;;;685832;28;8609;-86
2021/08/01 01:05:23;;;;;;;;;14.00;14.00;37.10;24.60;;;;;;683051;28;7212;-85
2021/08/01 01:06:01;;;;;;;;;12.00;12.00;37.10;24.80;;;;;;683228;28;6469;-87
2021/08/01 01:06:26;;;;;;;;;12.00;12.00;37.10;24.80;;;;;;685922;28;6637;-85
2021/08/01 01:07:28;;;;;;;;;14.75;14.75;37.10;24.90;;;;;;683190;28;6672;-86
2021/08/01 01:08:14;;;;;;;;;13.00;13.00;37.10;24.70;;;;;;680377;28;7713;-86
2021/08/01 01:08:43;;;;;;;;;12.50;12.50;37.10;24.80;;;;;;680599;28;6341;-86
2021/08/01 01:09:11;;;;;;;;;11.80;11.40;37.10;24.80;;;;;;677717;29;8152;-86
2021/08/01 01:09:39;;;;;;;;;15.00;14.00;37.00;24.80;;;;;;677797;28;8433;-85
2021/08/01 01:10:07;;;;;;;;;15.50;15.50;37.10;24.90;;;;;;680457;28;6564;-85
2021/08/01 01:10:36;;;;;;;;;15.40;14.40;37.10;24.90;;;;;;680290;28;6552;-86
2021/08/01 01:11:00;;;;;;;;;14.75;13.25;37.10;24.90;;;;;;681852;28;8287;-86
2021/08/01 01:11:26;;;;;;;;;13.00;12.75;37.00;24.70;;;;;;682102;28;6106;-86
2021/08/01 01:11:48;;;;;;;;;13.00;12.00;37.00;24.70;;;;;;680358;28;6305;-85
2021/08/01 01:12:13;;;;;;;;;13.00;13.00;37.10;24.90;;;;;;680313;28;6658;-86
2021/08/01 01:12:41;;;;;;;;;14.75;14.00;37.10;24.80;;;;;;680512;28;6167;-86
2021/08/01 01:13:10;;;;;;;;;13.00;12.60;37.10;24.90;;;;;;683065;28;6311;-84
2021/08/01 01:13:37;;;;;;;;;14.80;14.80;37.00;24.60;;;;;;683286;28;6139;-86
2021/08/01 01:14:00;;;;;;;;;11.80;10.80;37.10;24.80;;;;;;683068;28;7585;-86
2021/08/01 01:14:23;;;;;;;;;12.00;12.00;37.10;24.90;;;;;;683108;28;7528;-84
2021/08/01 01:14:50;;;;;;;;;15.00;15.00;37.10;24.80;;;;;;683085;28;6750;-86
2021/08/01 01:15:19;;;;;;;;;12.40;11.80;37.10;24.80;;;;;;683014;28;8101;-86
2021/08/01 01:15:45;;;;;;;;;15.25;15.25;37.10;24.80;;;;;;683073;28;6641;-85
2021/08/01 01:16:06;;;;;;;;;12.75;12.25;37.10;24.70;;;;;;683226;28;6425;-86
2021/08/01 01:16:29;;;;;;;;;14.00;13.80;37.10;24.80;;;;;;680510;28;7017;-86
2021/08/01 01:16:55;;;;;;;;;13.00;13.00;37.10;24.70;;;;;;680237;28;8201;-86
2021/08/01 01:17:22;;;;;;;;;14.00;14.00;37.10;24.70;;;;;;680330;28;7530;-86
2021/08/01 01:17:48;;;;;;;;;15.00;15.00;37.10;24.70;;;;;;680372;28;8555;-85
2021/08/01 01:19:25;;;;;;;;;13.20;13.20;37.10;24.70;;;;;;688091;28;8045;-87
2021/08/01 01:20:08;;;;;;;;;12.60;12.40;37.10;24.70;;;;;;688763;28;7639;-86
2021/08/01 01:20:49;;;;;;;;;14.00;14.00;37.10;24.60;;;;;;692583;28;6713;-87
2021/08/01 01:21:35;;;;;;;;;16.00;15.00;37.10;24.80;;;;;;692373;28;8131;-86
2021/08/01 01:22:27;;;;;;;;;12.40;12.40;37.10;24.60;;;;;;691935;28;7050;-85
2021/08/01 01:22:59;;;;;;;;;11.40;11.40;37.10;24.70;;;;;;682496;28;6916;-86
2021/08/01 01:24:01;;;;;;;;;17.00;15.00;37.10;24.70;;;;;;685928;28;6423;-84
2021/08/01 01:24:29;;;;;;;;;16.00;14.40;37.00;24.70;;;;;;673333;29;6700;-86
2021/08/01 01:24:53;;;;;;;;;14.00;12.60;37.10;24.80;;;;;;686753;28;6686;-86
2021/08/01 01:25:27;;;;;;;;;14.00;13.60;37.10;24.90;;;;;;683898;28;8310;-85
2021/08/01 01:26:01;;;;;;;;;12.50;12.50;37.10;24.90;;;;;;680961;28;6673;-86
2021/08/01 01:26:36;;;;;;;;;15.00;14.00;37.10;25.70;;;;;;680995;28;6771;-86
2021/08/01 01:27:02;;;;;;;;;14.00;13.00;37.10;24.80;;;;;;678846;28;6655;-86
2021/08/01 01:27:47;;;;;;;;;14.80;14.20;37.10;24.90;;;;;;681520;28;6643;-85
2021/08/01 01:28:20;;;;;;;;;11.40;11.40;37.00;24.80;;;;;;684336;28;6612;-88
2021/08/01 01:28:54;;;;;;;;;13.40;13.40;37.10;24.80;;;;;;681425;28;8641;-85
2021/08/01 01:29:20;;;;;;;;;15.50;15.50;37.10;24.70;;;;;;680503;28;8298;-86
2021/08/01 01:29:49;;;;;;;;;13.60;13.00;37.10;24.70;;;;;;680655;28;6460;-86
2021/08/01 01:30:10;;;;;;;;;12.00;12.00;37.10;24.60;;;;;;683220;28;6411;-86
2021/08/01 01:30:34;;;;;;;;;14.00;14.00;37.10;24.60;;;;;;682078;28;6956;-85
2021/08/01 01:31:42;;;;;;;;;13.50;12.75;37.10;24.60;;;;;;680716;28;6406;-86
2021/08/01 01:32:33;;;;;;;;;14.00;13.20;37.10;24.50;;;;;;674929;29;6677;-85
2021/08/01 01:33:05;;;;;;;;;14.40;14.00;37.20;24.70;;;;;;674997;29;8411;-86
2021/08/01 01:33:29;;;;;;;;;14.00;13.00;37.20;24.60;;;;;;675017;29;6422;-86
2021/08/01 01:34:08;;;;;;;;;13.00;12.80;37.10;24.50;;;;;;675858;29;8767;-87
2021/08/01 01:34:38;;;;;;;;;14.00;14.00;37.10;24.50;;;;;;675039;29;6894;-86
2021/08/01 01:35:08;;;;;;;;;12.40;12.00;37.20;24.60;;;;;;672518;29;6177;-87
2021/08/01 01:35:32;;;;;;;;;13.80;13.20;37.20;24.60;;;;;;672405;29;8932;-85
2021/08/01 01:35:55;;;;;;;;;15.40;15.40;37.10;24.50;;;;;;675279;29;6117;-85
2021/08/01 01:36:23;;;;;;;;;17.00;15.00;37.10;24.40;;;;;;673041;29;8359;-85
2021/08/01 01:36:46;;;;;;;;;14.00;14.00;37.10;24.60;;;;;;674984;29;6780;-86
2021/08/01 01:37:13;;;;;;;;;15.00;14.00;37.10;24.50;;;;;;675172;29;6567;-86
2021/08/01 01:37:34;;;;;;;;;16.00;15.00;37.20;24.60;;;;;;672434;29;6839;-86
2021/08/01 01:37:55;;;;;;;;;15.40;15.40;37.20;24.60;;;;;;672759;29;6025;-86
2021/08/01 01:38:17;;;;;;;;;13.00;12.00;37.10;24.50;;;;;;674688;29;6800;-85
2021/08/01 01:38:38;;;;;;;;;14.25;13.00;37.10;24.50;;;;;;675004;29;6712;-85
2021/08/01 01:39:04;;;;;;;;;15.00;13.50;37.10;24.50;;;;;;677774;29;6182;-85
2021/08/01 01:39:26;;;;;;;;;15.25;14.50;37.20;24.60;;;;;;677431;29;8470;-86
2021/08/01 01:39:48;;;;;;;;;16.00;16.00;37.10;24.50;;;;;;677400;29;8664;-86
2021/08/01 01:40:11;;;;;;;;;14.00;13.25;37.10;24.50;;;;;;676116;29;7073;-85
2021/08/01 01:40:35;;;;;;;;;12.00;12.00;37.10;24.50;;;;;;673450;29;6986;-85
2021/08/01 01:40:57;;;;;;;;;15.00;15.00;37.10;24.60;;;;;;670396;29;7266;-85
2021/08/01 01:41:18;;;;;;;;;14.00;13.00;37.10;24.50;;;;;;672532;29;6106;-85
2021/08/01 01:41:42;;;;;;;;;12.20;12.20;37.10;24.60;;;;;;671127;29;6128;-86
2021/08/01 01:42:05;;;;;;;;;14.50;14.50;37.10;24.60;;;;;;671435;29;6282;-86
2021/08/01 01:42:27;;;;;;;;;13.20;13.20;37.10;24.60;;;;;;672454;29;6254;-86
2021/08/01 01:42:51;;;;;;;;;12.00;12.00;37.10;24.60;;;;;;671092;29;8315;-85
2021/08/01 01:43:12;;;;;;;;;14.00;13.00;37.10;24.50;;;;;;672322;29;6903;-85
2021/08/01 01:43:34;;;;;;;;;15.60;15.00;37.10;24.60;;;;;;672519;29;6122;-85
2021/08/01 01:43:55;;;;;;;;;15.60;13.60;37.00;24.50;;;;;;669523;29;6501;-86
2021/08/01 01:44:16;;;;;;;;;14.00;14.00;37.10;24.70;;;;;;672464;29;6129;-85
2021/08/01 01:44:37;;;;;;;;;13.50;13.00;37.10;24.60;;;;;;673620;29;5997;-86
2021/08/01 01:45:00;;;;;;;;;15.60;14.00;37.10;24.60;;;;;;674143;29;8514;-86
2021/08/01 01:45:21;;;;;;;;;14.00;14.00;37.00;24.50;;;;;;674919;29;6745;-85
2021/08/01 01:45:42;;;;;;;;;12.25;12.25;37.10;24.60;;;;;;672301;29;7194;-86
2021/08/01 01:46:04;;;;;;;;;14.00;14.00;37.10;24.70;;;;;;671464;29;6878;-86
2021/08/01 01:46:26;;;;;;;;;13.00;13.00;37.10;24.60;;;;;;672491;29;6777;-85
2021/08/01 01:46:48;;;;;;;;;16.00;14.40;37.10;24.70;;;;;;671523;29;8087;-86
2021/08/01 01:47:08;;;;;;;;;14.00;14.00;37.10;24.60;;;;;;669889;29;6136;-85
2021/08/01 01:47:30;;;;;;;;;13.00;13.00;37.10;24.60;;;;;;673183;29;6088;-86
2021/08/01 01:47:51;;;;;;;;;13.00;12.00;37.10;24.70;;;;;;674973;29;6754;-86
2021/08/01 01:48:12;;;;;;;;;14.60;13.60;37.10;24.70;;;;;;674159;29;8140;-86
2021/08/01 01:48:34;;;;;;;;;15.50;15.50;37.10;24.70;;;;;;672488;29;6982;-85
2021/08/01 01:48:57;;;;;;;;;13.60;13.60;37.00;24.60;;;;;;670366;29;8542;-86
2021/08/01 01:49:18;;;;;;;;;14.50;14.00;37.10;24.70;;;;;;672415;29;8677;-85
2021/08/01 01:49:40;;;;;;;;;15.75;15.25;37.10;24.70;;;;;;675085;29;6263;-85
2021/08/01 01:50:02;;;;;;;;;15.60;15.60;37.10;24.70;;;;;;677523;29;6979;-85
2021/08/01 01:50:23;;;;;;;;;16.40;15.40;37.10;24.70;;;;;;677607;29;8878;-85
2021/08/01 01:50:44;;;;;;;;;15.40;14.40;37.10;24.70;;;;;;677923;29;6226;-86
2021/08/01 01:51:06;;;;;;;;;16.00;14.50;37.00;24.70;;;;;;677162;29;8413;-85
2021/08/01 01:51:29;;;;;;;;;14.60;13.60;37.00;24.60;;;;;;671525;29;6927;-85
2021/08/01 01:51:51;;;;;;;;;13.00;12.60;37.00;24.60;;;;;;669017;29;7171;-85
2021/08/01 01:52:15;;;;;;;;;14.60;14.00;37.00;24.70;;;;;;667080;29;6802;-85
2021/08/01 01:52:35;;;;;;;;;16.60;14.60;37.00;24.70;;;;;;666103;29;6811;-85
2021/08/01 01:52:56;;;;;;;;;18.60;17.40;37.00;24.60;;;;;;666097;29;6169;-86
2021/08/01 01:53:18;;;;;;;;;16.00;13.60;37.00;24.70;;;;;;665999;29;6156;-85
2021/08/01 01:53:39;;;;;;;;;14.00;13.20;37.00;24.70;;;;;;668372;29;6230;-85
2021/08/01 01:54:00;;;;;;;;;15.25;15.25;37.00;24.70;;;;;;670840;29;6019;-85
2021/08/01 01:54:22;;;;;;;;;14.50;14.50;37.00;24.60;;;;;;672178;29;8906;-86
2021/08/01 01:54:43;;;;;;;;;17.00;17.00;37.00;24.60;;;;;;671791;29;7083;-85
2021/08/01 01:55:05;;;;;;;;;16.20;16.20;37.00;24.70;;;;;;670801;29;6106;-85
2021/08/01 01:55:28;;;;;;;;;15.00;14.80;37.00;24.60;;;;;;669812;29;8452;-85
2021/08/01 01:55:50;;;;;;;;;16.40;16.40;37.00;24.70;;;;;;669958;29;6381;-85
2021/08/01 01:56:13;;;;;;;;;14.25;14.00;37.00;24.70;;;;;;669959;29;6611;-85
2021/08/01 01:56:36;;;;;;;;;15.80;14.40;37.00;24.70;;;;;;671159;29;7170;-86
2021/08/01 01:56:59;;;;;;;;;18.00;17.00;37.00;24.70;;;;;;669508;29;8552;-86
2021/08/01 01:57:20;;;;;;;;;15.00;14.00;37.00;24.70;;;;;;671436;29;6789;-85
2021/08/01 01:57:42;;;;;;;;;15.80;15.60;37.00;24.70;;;;;;672711;29;6405;-86
2021/08/01 01:58:03;;;;;;;;;16.50;16.00;37.00;24.80;;;;;;669745;29;7944;-84
2021/08/01 01:58:24;;;;;;;;;15.50;15.50;37.00;24.70;;;;;;666448;29;5964;-85
2021/08/01 01:58:45;;;;;;;;;17.00;16.00;37.00;24.80;;;;;;667406;29;6690;-85
2021/08/01 01:59:06;;;;;;;;;17.67;16.67;37.00;24.80;;;;;;665597;29;5605;-85
2021/08/01 01:59:27;;;;;;;;;16.00;16.00;37.00;24.80;;;;;;667379;29;5639;-85
2021/08/01 01:59:48;;;;;;;;;17.00;16.00;37.00;25.70;;;;;;667857;29;8946;-86
2021/08/01 02:00:09;;;;;;;;;16.25;16.25;37.00;24.80;;;;;;670408;29;6198;-85
2021/08/01 02:00:30;;;;;;;;;16.20;14.00;37.00;24.70;;;;;;671698;29;6632;-84
2021/08/01 02:00:51;;;;;;;;;19.50;17.00;37.00;24.80;;;;;;671889;29;6500;-86
2021/08/01 02:01:11;;;;;;;;;21.25;19.25;37.00;24.80;;;;;;677344;29;6986;-85
2021/08/01 02:01:32;;;;;;;;;18.00;17.25;37.00;24.80;;;;;;675175;29;6359;-86
2021/08/01 02:01:53;;;;;;;;;14.80;14.80;37.00;24.80;;;;;;675576;29;6963;-86
2021/08/01 02:02:14;;;;;;;;;16.60;16.00;37.00;24.80;;;;;;677689;29;6239;-87
2021/08/01 02:02:36;;;;;;;;;16.50;16.25;37.00;24.90;;;;;;677665;29;6132;-85
2021/08/01 02:02:57;;;;;;;;;18.00;16.40;37.00;24.70;;;;;;677582;29;6879;-85
2021/08/01 02:03:17;;;;;;;;;15.20;15.20;37.00;24.80;;;;;;675026;29;6238;-85
2021/08/01 02:03:38;;;;;;;;;17.20;17.20;36.90;24.70;;;;;;672298;29;6933;-85
2021/08/01 02:03:59;;;;;;;;;16.40;15.40;37.00;24.80;;;;;;672322;29;6288;-85
2021/08/01 02:04:20;;;;;;;;;17.00;16.00;36.90;24.70;;;;;;672445;29;6265;-86
2021/08/01 02:04:41;;;;;;;;;18.75;16.00;36.90;24.70;;;;;;672367;29;6507;-86